McAlister, NM

4:54 AM MDT on August 30, 2014 (GMT -0600)
Clovis Municipal | Change Station
CLOSE
Current Station
Airport
Location: Clovis,
Elevation: 4216 ft
Nearby Weather Stations

Elev 4216 ft 34.43 °N, 103.08 °W | Updated 19 minutes ago

Clear
Clear
61 °F
Feels Like 61 °F
N
4
Wind Variable Wind from West
Gusts 6 mph

Today
High -- | Low -- °F
--% Chance of Precip.
Yesterday
High -- | Low -- °F
Precip. -- in
6:26 AM 7:23 PM
Waxing Crescent, 21% visible
Pressure 30.13 in
Visibility 10.0 miles
Clouds
Dew Point 55 °F
Humidity 82%
Rainfall 0.00 in
Snow Depth Not available.
UV Not available.
Pollen 9.30 out of 12
Air Quality Not available.
Flu Activity Not available.
METAR KCVN 301035Z AUTO 26003KT 10SM 16/13 A3013 RMK AO1

More Conditions Fewer Conditions

Pressure 30.13 in
Visibility 10.0 miles
Clouds
Dew Point 55 °F
Humidity 82%
Rainfall 0.00 in
Snow Depth Not available.
UV Not available.
Pollen 9.30 out of 12
Air Quality Not available.
Flu Activity Not available.
METAR KCVN 301035Z AUTO 26003KT 10SM 16/13 A3013 RMK AO1

More Conditions Fewer Conditions

10-Day Weather Forecast

Almanac

Astronomy

Aug. 30, 2014 Rise Set
Actual Time 6:26 AM MDT 7:23 PM MDT
Civil Twilight 6:00 AM MDT 7:49 PM MDT
Nautical Twilight 5:29 AM MDT 8:20 PM MDT
Astronomical Twilight 4:58 AM MDT 8:51 PM MDT
Moon 11:02 AM MDT 10:13 PM MDT
Length of Visible Light 13h 49m
Length of Day
12h 57m
Tomorrow will be 2m 4s shorter.
Waxing Crescent, 21% of the Moon is Illuminated
Today
Waxing Crescent
Sep 2
First Quarter
Sep 8
Full
Sep 15
Last Quarter
Sep 24
New

Today's Extremes

State Highs State Lows

Community

WunderPhotos

Upload Photos

1,748,482 photos uploaded!

WunderBlogs® & News

By Dr. Jeff Masters
Director of Meteorology, Weather Underground
By Kari Strenfel
Meteorologist, Weather Underground
By Christopher C. Burt
Weather Historian, Weather Underground
August 30, 2014
August 29, 2014
August 29, 2014

Nearby

Snow Depth

Station Depth Elevation
Wesner Springs 2 in 11120 ft
Gallegos Peak 1 in 9800 ft
Tolby 1 in 10180 ft
Sierra Blanca 2 in 10280 ft
Quemazon 2 in 9500 ft

Earthquake Activity

City Distance Mag. Time & Date
No recent earthquake activity has been reported nearby.
Minimum magnitude displayed is 2.5.

Coastal Water Temperatures

Place Temperature
No Stations Reporting

Nearby Weather Stations